Time;durP1;ratioP1;P1;durP2;ratioP2;P2;SDS_P1;SDS_P2;PMS_P1;PMS_P2;Temp;Humidity;BMP_temperature;BMP_pressure;BME280_temperature;BME280_humidity;BME280_pressure;Samples;Min_cycle;Max_cycle;Signal;HPM_P1;HPM_P2
2022/06/26 00:00:07;;;;;;;6.00;2.30;;;;;;;18.30;100.00;96438.19;4999598;28;20064;-68
2022/06/26 00:02:34;;;;;;;6.07;2.50;;;;;;;18.36;100.00;96460.66;5002074;28;20141;-68
2022/06/26 00:04:59;;;;;;;6.30;1.77;;;;;;;18.23;100.00;96483.44;5004305;28;20046;-68
2022/06/26 00:07:25;;;;;;;2.20;1.50;;;;;;;18.00;100.00;96500.84;5008466;28;20054;-68
2022/06/26 00:09:50;;;;;;;9.50;1.50;;;;;;;18.11;100.00;96504.25;5029154;28;20045;-68
2022/06/26 00:12:16;;;;;;;5.97;1.60;;;;;;;18.22;100.00;96506.84;4998778;28;20053;-67
2022/06/26 00:14:42;;;;;;;2.50;1.25;;;;;;;18.27;100.00;96516.66;5004519;28;20049;-68
2022/06/26 00:17:08;;;;;;;2.88;1.48;;;;;;;18.43;100.00;96515.97;5007922;28;20048;-69
2022/06/26 00:19:34;;;;;;;3.22;1.30;;;;;;;18.51;100.00;96520.97;5002855;28;20042;-66
2022/06/26 00:21:59;;;;;;;9.93;1.67;;;;;;;18.58;100.00;96527.59;5004667;28;20539;-65
2022/06/26 00:24:25;;;;;;;3.15;1.40;;;;;;;18.67;100.00;96522.28;4999928;28;20403;-67
2022/06/26 00:26:50;;;;;;;2.47;1.38;;;;;;;18.77;100.00;96529.63;5005756;28;20038;-67
2022/06/26 00:29:15;;;;;;;2.85;1.50;;;;;;;18.81;100.00;96535.91;4991723;28;20494;-66
2022/06/26 00:31:41;;;;;;;4.10;1.50;;;;;;;18.83;100.00;96532.72;5006041;28;20069;-67
2022/06/26 00:34:06;;;;;;;2.85;1.30;;;;;;;18.96;100.00;96530.91;5002250;28;20132;-67
2022/06/26 00:36:32;;;;;;;4.65;1.30;;;;;;;18.88;100.00;96532.22;5008489;28;20049;-65
2022/06/26 00:38:57;;;;;;;4.57;1.55;;;;;;;18.87;100.00;96525.09;5008229;28;20042;-67
2022/06/26 00:41:23;;;;;;;1.88;1.25;;;;;;;18.93;100.00;96517.84;5000973;28;20050;-67
2022/06/26 00:43:49;;;;;;;3.42;1.58;;;;;;;19.00;100.00;96526.03;4998522;28;20042;-66
2022/06/26 00:46:14;;;;;;;6.97;1.60;;;;;;;19.05;100.00;96533.06;4997363;28;20107;-66
2022/06/26 00:48:40;;;;;;;7.53;1.30;;;;;;;19.05;100.00;96535.84;4997131;28;20046;-65
2022/06/26 00:51:06;;;;;;;3.20;1.30;;;;;;;19.07;100.00;96539.00;4996326;28;20042;-67
2022/06/26 00:53:32;;;;;;;6.00;1.35;;;;;;;19.03;100.00;96538.28;5004057;28;20149;-68
2022/06/26 00:55:58;;;;;;;3.38;1.60;;;;;;;18.92;100.00;96538.47;5002295;28;20033;-69
2022/06/26 00:58:25;;;;;;;2.78;1.27;;;;;;;18.88;100.00;96530.22;4997376;28;20519;-68
2022/06/26 01:00:50;;;;;;;3.83;1.30;;;;;;;18.95;100.00;96529.31;5002014;28;20119;-66
2022/06/26 01:03:16;;;;;;;3.75;1.48;;;;;;;18.96;100.00;96532.88;4999170;28;20093;-67
2022/06/26 01:05:41;;;;;;;3.00;1.45;;;;;;;19.00;100.00;96537.16;5006838;28;20053;-67
2022/06/26 01:08:08;;;;;;;4.30;1.65;;;;;;;18.74;100.00;96536.00;5000232;28;20106;-67
2022/06/26 01:10:34;;;;;;;2.03;1.23;;;;;;;18.67;100.00;96552.78;5004238;28;20064;-69
2022/06/26 01:13:00;;;;;;;5.68;1.40;;;;;;;18.65;100.00;96553.22;5005720;28;20057;-68
2022/06/26 01:15:27;;;;;;;4.43;1.40;;;;;;;18.60;100.00;96558.47;4999448;28;20041;-67
2022/06/26 01:17:54;;;;;;;2.80;1.23;;;;;;;18.78;100.00;96555.38;5004931;28;20128;-69
2022/06/26 01:20:19;;;;;;;2.92;1.08;;;;;;;18.93;100.00;96545.59;5000560;28;20046;-68
2022/06/26 01:22:56;;;;;;;3.08;1.23;;;;;;;18.89;100.00;96547.69;4998753;28;20483;-69
2022/06/26 01:25:21;;;;;;;2.72;1.30;;;;;;;18.81;100.00;96540.66;4997712;28;20215;-67
2022/06/26 01:27:47;;;;;;;3.40;1.40;;;;;;;18.94;100.00;96536.06;5005807;28;20053;-65
2022/06/26 01:30:12;;;;;;;3.33;1.13;;;;;;;18.89;100.00;96534.56;4997481;28;20431;-66
2022/06/26 01:32:38;;;;;;;3.13;1.50;;;;;;;18.81;100.00;96529.56;5004662;28;20037;-65
2022/06/26 01:35:04;;;;;;;3.38;1.20;;;;;;;18.83;100.00;96527.16;5001000;28;20529;-63
2022/06/26 01:37:30;;;;;;;1.55;1.25;;;;;;;18.86;100.00;96520.78;5003986;28;20634;-64
2022/06/26 01:39:55;;;;;;;1.40;1.00;;;;;;;18.79;100.00;96518.88;5004148;28;20205;-67
2022/06/26 01:42:20;;;;;;;3.25;1.40;;;;;;;18.81;100.00;96519.25;4998322;28;20045;-67
2022/06/26 01:44:46;;;;;;;2.78;1.48;;;;;;;18.80;100.00;96520.47;5002497;28;20070;-67
2022/06/26 01:47:11;;;;;;;5.13;1.40;;;;;;;18.88;100.00;96526.69;5011013;28;20042;-67
2022/06/26 01:49:37;;;;;;;2.70;1.48;;;;;;;18.85;100.00;96521.97;4996624;28;20038;-68
2022/06/26 01:52:02;;;;;;;3.10;1.63;;;;;;;18.80;100.00;96519.66;4997262;28;20053;-64
2022/06/26 01:54:28;;;;;;;1.55;1.13;;;;;;;18.67;100.00;96519.50;5001998;28;20060;-68
2022/06/26 01:56:54;;;;;;;3.80;1.30;;;;;;;18.68;100.00;96510.75;5005325;28;20106;-67
2022/06/26 01:59:19;;;;;;;1.63;1.23;;;;;;;18.56;100.00;96508.59;5005358;28;20041;-67
2022/06/26 02:01:45;;;;;;;3.67;1.48;;;;;;;18.35;100.00;96507.00;5006305;28;20041;-68
2022/06/26 02:04:16;;;;;;;3.03;1.23;;;;;;;18.36;100.00;96505.03;4998055;28;20046;-69
2022/06/26 02:06:42;;;;;;;1.98;1.20;;;;;;;18.33;100.00;96509.44;4996589;28;20038;-67
2022/06/26 02:13:35;;;;;;;3.92;1.10;;;;;;;18.54;100.00;96511.78;4996613;28;20049;-67
2022/06/26 02:14:36;;;;;;;5.80;1.30;;;;;;;18.61;100.00;96515.66;4996481;28;20096;-67
2022/06/26 02:17:02;;;;;;;1.92;1.08;;;;;;;18.72;100.00;96513.47;5001225;28;20439;-62
2022/06/26 02:19:27;;;;;;;2.80;1.60;;;;;;;18.71;100.00;96511.91;4994898;28;20055;-66
2022/06/26 02:21:53;;;;;;;2.25;1.10;;;;;;;18.67;100.00;96509.22;5004586;28;20049;-67
2022/06/26 02:24:18;;;;;;;3.80;1.20;;;;;;;18.59;100.00;96507.75;4997075;28;20103;-68
2022/06/26 02:26:43;;;;;;;2.72;1.25;;;;;;;18.57;100.00;96510.19;5011300;28;20052;-66
2022/06/26 02:29:09;;;;;;;5.60;1.00;;;;;;;18.38;100.00;96503.38;5016116;28;20083;-67
2022/06/26 02:31:34;;;;;;;3.85;1.33;;;;;;;18.29;100.00;96505.91;5002639;28;20137;-66
2022/06/26 02:33:59;;;;;;;4.38;1.38;;;;;;;18.30;100.00;96502.72;5000409;28;20042;-66
2022/06/26 02:36:25;;;;;;;5.32;1.20;;;;;;;18.22;100.00;96504.06;4994425;28;20145;-66
2022/06/26 02:38:50;;;;;;;2.47;1.23;;;;;;;18.16;100.00;96508.50;4999626;28;20118;-65
2022/06/26 02:41:16;;;;;;;2.08;1.30;;;;;;;17.78;100.00;96505.91;4998245;28;20157;-65
2022/06/26 02:43:41;;;;;;;1.83;1.25;;;;;;;17.57;100.00;96504.25;5001717;28;20454;-65
2022/06/26 02:46:06;;;;;;;3.92;1.30;;;;;;;17.56;100.00;96503.47;5010326;28;20034;-67
2022/06/26 02:48:32;;;;;;;2.85;1.50;;;;;;;17.55;100.00;96492.81;5000872;28;20161;-67
2022/06/26 02:50:57;;;;;;;6.05;1.70;;;;;;;17.46;100.00;96489.78;5000134;28;20057;-67
2022/06/26 02:53:22;;;;;;;4.85;1.23;;;;;;;17.35;100.00;96493.47;4996099;28;20129;-66
2022/06/26 02:55:48;;;;;;;3.15;1.40;;;;;;;17.32;100.00;96494.31;5000450;28;20038;-67
2022/06/26 02:58:13;;;;;;;3.28;1.10;;;;;;;17.46;100.00;96498.06;4995853;28;20483;-65
2022/06/26 03:00:38;;;;;;;2.78;1.58;;;;;;;17.45;100.00;96491.75;5000425;28;20061;-68
2022/06/26 03:03:04;;;;;;;5.93;1.35;;;;;;;17.36;100.00;96494.28;4996557;28;20045;-63
2022/06/26 03:05:30;;;;;;;3.60;1.50;;;;;;;17.38;100.00;96506.47;5010118;28;20040;-66
2022/06/26 03:07:56;;;;;;;5.03;1.30;;;;;;;17.62;100.00;96508.53;5004764;28;20549;-65
2022/06/26 03:10:22;;;;;;;5.03;1.50;;;;;;;17.82;100.00;96512.19;4996263;28;20603;-67
2022/06/26 03:12:49;;;;;;;3.30;1.60;;;;;;;17.74;100.00;96519.81;5001885;28;20049;-66
2022/06/26 03:15:15;;;;;;;4.05;1.50;;;;;;;17.66;100.00;96512.03;4989674;28;20046;-67
2022/06/26 03:17:41;;;;;;;8.55;1.63;;;;;;;17.63;100.00;96510.88;5001723;28;20162;-67
2022/06/26 03:20:09;;;;;;;5.28;1.42;;;;;;;17.64;100.00;96509.69;4998514;28;20089;-65
2022/06/26 03:22:34;;;;;;;3.53;1.60;;;;;;;17.47;100.00;96499.66;5012979;28;20045;-67
2022/06/26 03:25:00;;;;;;;2.35;1.45;;;;;;;17.15;100.00;96498.09;5021757;28;20076;-64
2022/06/26 03:27:25;;;;;;;9.07;2.17;;;;;;;16.83;100.00;96496.50;5002402;28;20038;-66
2022/06/26 03:29:51;;;;;;;3.35;1.80;;;;;;;16.90;100.00;96495.63;5004156;28;20037;-63
2022/06/26 03:32:16;;;;;;;3.05;1.80;;;;;;;16.97;100.00;96498.31;4999164;28;20045;-64
2022/06/26 03:34:42;;;;;;;1.92;1.35;;;;;;;16.81;100.00;96491.34;5005108;28;20088;-65
2022/06/26 03:37:07;;;;;;;3.20;1.63;;;;;;;16.65;100.00;96488.38;4999553;28;20145;-66
2022/06/26 03:39:32;;;;;;;3.17;1.30;;;;;;;16.60;100.00;96486.06;5004184;28;20045;-66
2022/06/26 03:42:00;;;;;;;2.40;1.65;;;;;;;16.63;100.00;96490.75;5019941;28;20040;-66
2022/06/26 03:44:27;;;;;;;4.95;1.65;;;;;;;16.74;100.00;96487.88;4999120;28;20105;-66
2022/06/26 03:46:52;;;;;;;2.92;1.70;;;;;;;16.88;100.00;96492.50;5005124;28;20045;-65
2022/06/26 03:49:18;;;;;;;2.20;1.30;;;;;;;16.81;100.00;96485.81;5007019;28;20048;-63
2022/06/26 03:51:43;;;;;;;2.13;1.45;;;;;;;16.63;100.00;96472.19;5018925;28;20042;-64
2022/06/26 03:54:08;;;;;;;2.35;1.50;;;;;;;16.59;100.00;96473.44;5007388;28;20034;-66
2022/06/26 03:56:34;;;;;;;3.72;1.48;;;;;;;16.66;100.00;96478.13;5011824;28;20081;-68
2022/06/26 03:58:59;;;;;;;5.13;1.60;;;;;;;16.77;100.00;96487.84;5006139;28;20041;-66
2022/06/26 04:01:25;;;;;;;2.50;1.40;;;;;;;16.95;100.00;96484.13;4998299;28;20042;-66
2022/06/26 04:03:50;;;;;;;5.43;1.25;;;;;;;17.11;100.00;96486.28;5004619;28;20049;-67
2022/06/26 04:06:16;;;;;;;1.55;1.00;;;;;;;17.19;100.00;96493.28;4997784;28;20402;-65
2022/06/26 04:08:41;;;;;;;2.72;1.20;;;;;;;17.31;100.00;96492.75;4995882;28;20038;-66
2022/06/26 04:11:06;;;;;;;3.47;1.38;;;;;;;17.70;100.00;96496.94;4993836;28;20037;-67
2022/06/26 04:13:32;;;;;;;2.80;1.27;;;;;;;17.86;100.00;96487.22;5004566;28;20125;-67
2022/06/26 04:15:58;;;;;;;1.65;1.13;;;;;;;17.88;100.00;96485.63;5003480;28;20054;-66
2022/06/26 04:18:25;;;;;;;3.35;1.35;;;;;;;18.00;100.00;96478.69;4999320;28;20478;-68
2022/06/26 04:20:50;;;;;;;2.25;1.00;;;;;;;18.09;100.00;96486.47;5003442;28;20064;-65
2022/06/26 04:23:16;;;;;;;3.58;1.00;;;;;;;18.14;100.00;96485.97;4999187;28;20529;-64
2022/06/26 04:25:41;;;;;;;1.38;0.90;;;;;;;18.24;100.00;96482.25;5003288;28;20046;-65
2022/06/26 04:28:07;;;;;;;4.45;1.17;;;;;;;17.74;100.00;96477.50;4994531;28;20130;-67
2022/06/26 04:30:33;;;;;;;3.90;1.35;;;;;;;17.68;100.00;96468.88;5000909;28;20038;-67
2022/06/26 04:32:58;;;;;;;3.15;1.30;;;;;;;17.96;100.00;96466.88;5000301;28;20046;-66
2022/06/26 04:35:24;;;;;;;1.30;0.98;;;;;;;18.20;100.00;96470.41;4997044;28;20042;-67
2022/06/26 04:37:49;;;;;;;1.73;1.00;;;;;;;18.40;100.00;96475.22;4999752;28;20128;-67
2022/06/26 04:40:15;;;;;;;1.48;1.02;;;;;;;18.60;100.00;96470.50;4999231;28;20157;-66
2022/06/26 04:42:42;;;;;;;2.72;1.30;;;;;;;18.76;100.00;96469.78;4994317;28;20446;-66
2022/06/26 04:45:08;;;;;;;3.72;1.23;;;;;;;18.89;100.00;96467.22;4987786;28;20399;-66
2022/06/26 04:47:34;;;;;;;4.25;1.25;;;;;;;19.03;100.00;96466.13;4993875;28;20145;-66
2022/06/26 04:49:59;;;;;;;2.85;1.20;;;;;;;19.09;100.00;96461.63;5003053;28;20045;-65
2022/06/26 04:52:25;;;;;;;2.92;1.00;;;;;;;19.19;100.00;96462.63;4997605;28;20134;-65
2022/06/26 04:54:50;;;;;;;4.60;1.00;;;;;;;19.24;100.00;96468.44;4993123;28;20045;-67
2022/06/26 04:57:17;;;;;;;4.88;1.33;;;;;;;19.31;100.00;96461.94;4995730;28;20096;-66
2022/06/26 04:59:43;;;;;;;3.80;1.25;;;;;;;19.35;100.00;96465.44;5003074;28;20056;-66
2022/06/26 05:02:09;;;;;;;2.83;1.20;;;;;;;19.37;100.00;96465.78;4995301;28;20072;-67
2022/06/26 05:04:35;;;;;;;1.75;1.00;;;;;;;19.46;100.00;96462.41;5002957;28;20384;-67
2022/06/26 05:07:00;;;;;;;1.60;0.88;;;;;;;19.58;100.00;96463.75;4992019;28;20061;-66
2022/06/26 05:09:26;;;;;;;3.53;1.00;;;;;;;19.71;100.00;96461.06;4998409;28;20175;-63
2022/06/26 05:11:52;;;;;;;1.55;1.10;;;;;;;19.82;100.00;96473.50;5007540;28;20046;-66
2022/06/26 05:14:17;;;;;;;4.63;1.45;;;;;;;19.92;100.00;96476.47;4998312;28;20042;-66
2022/06/26 05:16:43;;;;;;;2.15;1.00;;;;;;;19.84;100.00;96473.06;5003012;28;20100;-68
2022/06/26 05:19:08;;;;;;;4.75;1.60;;;;;;;20.03;100.00;96477.00;4994006;28;20042;-67
2022/06/26 05:21:35;;;;;;;3.25;1.05;;;;;;;20.20;100.00;96475.78;5001201;28;20610;-66
2022/06/26 05:24:00;;;;;;;1.98;1.20;;;;;;;20.41;100.00;96470.88;5001837;28;20123;-65
2022/06/26 05:26:26;;;;;;;2.55;1.00;;;;;;;20.74;100.00;96473.59;4997899;28;20076;-65
2022/06/26 05:28:51;;;;;;;2.80;1.00;;;;;;;20.98;100.00;96472.13;4995622;28;20074;-66
2022/06/26 05:31:17;;;;;;;4.13;1.10;;;;;;;21.15;100.00;96470.03;4984875;28;20054;-64
2022/06/26 05:33:43;;;;;;;1.80;0.98;;;;;;;21.42;100.00;96468.06;4999569;28;20045;-65
2022/06/26 05:36:08;;;;;;;5.60;0.95;;;;;;;22.23;100.00;96463.91;4988840;28;20046;-66
2022/06/26 05:38:35;;;;;;;5.32;0.88;;;;;;;24.40;94.93;96458.19;4992993;28;20041;-66
2022/06/26 05:41:01;;;;;;;4.93;0.68;;;;;;;26.42;77.98;96460.19;4999996;28;20453;-66
2022/06/26 05:43:26;;;;;;;1.00;0.63;;;;;;;28.47;67.19;96469.56;4995322;28;20068;-67
2022/06/26 05:45:52;;;;;;;3.17;0.90;;;;;;;29.91;59.45;96474.94;4997890;28;20684;-67
2022/06/26 05:48:18;;;;;;;1.70;0.80;;;;;;;30.80;53.27;96476.69;4996132;28;20141;-66
2022/06/26 05:50:43;;;;;;;2.58;0.50;;;;;;;31.50;49.73;96479.22;4994902;28;20034;-66
2022/06/26 05:53:08;;;;;;;4.72;1.70;;;;;;;30.83;48.94;96481.34;4996744;28;20045;-66
2022/06/26 05:55:34;;;;;;;2.95;1.58;;;;;;;28.12;53.55;96478.03;4996881;28;20534;-68
2022/06/26 05:58:00;;;;;;;1.67;0.75;;;;;;;27.41;59.11;96481.53;4997296;28;20041;-66
2022/06/26 06:00:25;;;;;;;1.08;0.50;;;;;;;24.86;63.22;96479.06;4997384;28;20037;-67
2022/06/26 06:02:51;;;;;;;1.00;0.52;;;;;;;25.60;64.69;96478.97;5001677;28;20091;-65
2022/06/26 06:05:16;;;;;;;4.55;0.70;;;;;;;24.78;65.35;96476.59;4996120;28;20137;-67
2022/06/26 06:07:42;;;;;;;1.75;0.52;;;;;;;24.90;63.74;96474.88;5001147;28;20037;-67
2022/06/26 06:10:08;;;;;;;3.22;0.80;;;;;;;24.51;67.69;96473.75;4984540;28;20062;-67
2022/06/26 06:12:35;;;;;;;2.17;0.77;;;;;;;23.90;70.61;96477.03;5001590;28;20041;-67
2022/06/26 06:15:01;;;;;;;2.75;0.60;;;;;;;23.02;73.49;96472.34;4999078;28;20038;-66
2022/06/26 06:17:36;;;;;;;1.35;0.63;;;;;;;23.02;76.62;96471.56;4992746;28;20048;-66
2022/06/26 06:20:06;;;;;;;2.45;0.80;;;;;;;22.51;79.25;96462.19;5000258;28;20435;-66
2022/06/26 06:22:32;;;;;;;1.00;0.70;;;;;;;23.17;75.92;96464.22;4999964;28;20048;-66
2022/06/26 06:24:58;;;;;;;1.27;0.80;;;;;;;22.79;78.11;96456.03;5002310;28;20129;-67
2022/06/26 06:27:24;;;;;;;1.83;0.60;;;;;;;23.05;74.95;96470.69;4996754;28;20448;-67
2022/06/26 06:29:49;;;;;;;1.90;0.68;;;;;;;23.20;76.49;96463.34;5002460;28;20052;-67
2022/06/26 06:32:14;;;;;;;1.05;0.60;;;;;;;23.37;73.55;96468.69;4997342;28;20510;-66
2022/06/26 06:34:40;;;;;;;1.45;0.70;;;;;;;24.28;72.29;96464.69;5014416;28;20394;-66
2022/06/26 06:37:06;;;;;;;2.13;0.80;;;;;;;23.33;73.31;96463.25;4993716;28;20038;-67
2022/06/26 06:39:32;;;;;;;0.93;0.68;;;;;;;22.83;76.15;96468.66;5001293;28;20479;-64
2022/06/26 06:41:58;;;;;;;1.48;0.77;;;;;;;23.36;74.85;96465.13;4993081;28;20062;-66
2022/06/26 06:44:23;;;;;;;1.17;0.57;;;;;;;23.61;73.29;96469.75;4996513;28;20946;-66
2022/06/26 06:46:48;;;;;;;3.70;1.95;;;;;;;23.45;72.89;96462.38;5000813;28;20133;-66
2022/06/26 06:49:14;;;;;;;1.23;0.60;;;;;;;23.47;75.76;96457.09;4986518;28;20403;-66
2022/06/26 06:51:40;;;;;;;2.38;0.70;;;;;;;23.55;72.31;96468.00;5000947;28;20410;-65
2022/06/26 06:54:06;;;;;;;3.00;0.60;;;;;;;23.47;72.74;96461.91;4994927;28;20045;-64
2022/06/26 06:56:31;;;;;;;2.42;0.95;;;;;;;23.55;71.66;96457.63;5001098;28;20046;-66
2022/06/26 06:58:57;;;;;;;1.23;0.65;;;;;;;23.46;72.05;96465.94;5002163;28;20448;-66
2022/06/26 07:01:22;;;;;;;1.35;0.70;;;;;;;23.95;72.14;96461.66;4997936;28;20517;-66
2022/06/26 07:03:48;;;;;;;2.25;0.60;;;;;;;23.30;71.40;96464.19;5004275;28;20056;-66
2022/06/26 07:06:13;;;;;;;3.38;0.80;;;;;;;23.33;71.57;96459.69;4999812;28;20101;-67
2022/06/26 07:08:39;;;;;;;1.13;0.52;;;;;;;23.18;70.85;96451.06;5003297;28;20049;-66
2022/06/26 07:11:04;;;;;;;2.95;0.68;;;;;;;23.75;70.37;96448.84;5002832;28;20132;-63
2022/06/26 07:13:29;;;;;;;2.00;0.50;;;;;;;23.98;69.36;96455.16;5005462;28;20045;-66
2022/06/26 07:15:56;;;;;;;2.38;0.52;;;;;;;24.48;63.60;96447.44;5003584;28;20060;-66
2022/06/26 07:18:22;;;;;;;0.80;0.50;;;;;;;24.48;65.26;96457.88;4994591;28;20231;-67
2022/06/26 07:20:47;;;;;;;2.38;0.77;;;;;;;24.10;66.30;96448.66;4999695;28;20133;-66
2022/06/26 07:23:13;;;;;;;1.58;0.63;;;;;;;24.64;62.44;96454.81;4995878;28;20141;-65
2022/06/26 07:25:38;;;;;;;0.90;0.60;;;;;;;24.66;63.34;96448.75;4998691;28;20034;-67
2022/06/26 07:28:04;;;;;;;2.22;0.45;;;;;;;24.37;61.98;96450.72;4996854;28;20037;-63
2022/06/26 07:30:31;;;;;;;0.90;0.60;;;;;;;24.99;59.78;96446.84;4999139;28;20045;-66
2022/06/26 07:32:57;;;;;;;0.82;0.50;;;;;;;25.53;56.64;96449.22;4995697;28;20048;-67
2022/06/26 07:35:22;;;;;;;1.35;0.63;;;;;;;25.08;60.50;96448.84;5009896;28;20886;-66
2022/06/26 07:37:48;;;;;;;1.77;0.50;;;;;;;25.48;57.96;96447.84;5001520;28;20069;-67
2022/06/26 07:40:13;;;;;;;3.28;0.50;;;;;;;26.04;58.27;96444.81;4993976;28;20104;-64
2022/06/26 07:42:39;;;;;;;0.77;0.40;;;;;;;27.29;52.46;96442.44;5000403;28;20046;-67
2022/06/26 07:45:05;;;;;;;1.17;0.50;;;;;;;29.78;47.31;96449.91;4995897;28;20061;-64
2022/06/26 07:47:30;;;;;;;2.50;0.40;;;;;;;26.98;55.00;96458.50;4995475;28;20110;-66
2022/06/26 07:49:56;;;;;;;3.70;0.60;;;;;;;27.33;53.93;96457.09;4995306;28;20128;-66
2022/06/26 07:52:21;;;;;;;1.38;0.32;;;;;;;27.04;53.18;96455.78;4996053;28;20060;-67
2022/06/26 07:54:47;;;;;;;1.17;0.50;;;;;;;26.68;54.61;96454.84;4999729;28;20033;-66
2022/06/26 07:57:12;;;;;;;2.42;0.60;;;;;;;27.77;51.25;96453.47;4995384;28;20038;-64
2022/06/26 07:59:38;;;;;;;3.78;0.60;;;;;;;29.20;48.07;96446.34;5001052;28;20576;-66
2022/06/26 08:02:04;;;;;;;1.55;0.50;;;;;;;26.35;56.08;96441.66;4994932;28;20590;-63
2022/06/26 08:04:30;;;;;;;1.30;0.52;;;;;;;26.86;55.52;96445.50;4994231;28;20046;-66
2022/06/26 08:06:55;;;;;;;2.25;0.82;;;;;;;25.27;60.50;96444.00;5003904;28;20137;-66
2022/06/26 08:09:21;;;;;;;2.00;0.70;;;;;;;26.00;57.78;96438.59;4999807;28;20057;-67
2022/06/26 08:11:46;;;;;;;2.80;0.60;;;;;;;26.74;55.19;96432.47;5005684;28;20658;-66
2022/06/26 08:14:11;;;;;;;1.30;0.50;;;;;;;25.67;57.45;96436.56;5001825;28;20045;-66
2022/06/26 08:16:37;;;;;;;0.60;0.40;;;;;;;25.31;59.51;96427.78;5002059;28;20132;-66
2022/06/26 08:19:02;;;;;;;2.13;0.45;;;;;;;25.44;58.76;96429.63;4999917;28;20387;-64
2022/06/26 08:24:11;;;;;;;1.08;0.60;;;;;;;26.72;55.27;96432.19;4988391;28;20050;-66
2022/06/26 08:26:36;;;;;;;0.50;0.40;;;;;;;25.58;57.71;96425.38;5003527;28;20546;-66
2022/06/26 08:29:02;;;;;;;1.05;0.40;;;;;;;26.50;52.46;96434.03;5002143;28;20398;-64
2022/06/26 08:31:27;;;;;;;0.57;0.40;;;;;;;26.51;50.74;96434.84;4991626;28;20092;-65
2022/06/26 08:33:53;;;;;;;0.95;0.50;;;;;;;26.60;50.04;96434.75;5017964;28;20427;-67
2022/06/26 08:36:18;;;;;;;2.10;0.40;;;;;;;26.61;51.59;96435.56;4996141;28;20037;-65
2022/06/26 08:38:43;;;;;;;1.40;0.50;;;;;;;26.11;51.34;96427.63;4996538;28;20061;-66
2022/06/26 08:41:12;;;;;;;1.05;0.65;;;;;;;27.43;50.70;96428.38;4998987;28;20045;-65
2022/06/26 08:43:39;;;;;;;0.85;0.50;;;;;;;26.55;52.07;96426.22;5003664;28;20092;-66
2022/06/26 08:46:05;;;;;;;1.17;0.30;;;;;;;27.38;49.84;96431.09;4988762;28;20087;-66
2022/06/26 08:48:42;;;;;;;2.33;0.50;;;;;;;27.18;48.11;96438.16;5005361;28;20038;-65
2022/06/26 08:51:08;;;;;;;0.73;0.40;;;;;;;27.88;46.44;96433.91;4998108;28;20041;-66
2022/06/26 08:53:34;;;;;;;0.65;0.40;;;;;;;27.02;46.76;96433.78;5003788;28;20065;-66
2022/06/26 08:56:01;;;;;;;0.65;0.50;;;;;;;26.70;47.49;96432.66;5003253;28;20133;-67
2022/06/26 08:58:27;;;;;;;1.40;0.55;;;;;;;27.20;50.49;96443.28;4999718;28;20038;-66
2022/06/26 09:00:52;;;;;;;0.98;0.47;;;;;;;27.11;47.94;96446.19;5001560;28;20046;-66
2022/06/26 09:03:18;;;;;;;0.68;0.40;;;;;;;27.05;45.42;96449.69;4997985;28;20096;-66
2022/06/26 09:05:43;;;;;;;0.55;0.40;;;;;;;26.85;46.13;96429.91;5002997;28;20038;-67
2022/06/26 09:08:20;;;;;;;0.57;0.50;;;;;;;27.26;46.40;96435.72;4999068;28;20038;-66
2022/06/26 09:10:47;;;;;;;2.30;0.40;;;;;;;26.77;49.14;96428.72;5003321;28;20202;-65
2022/06/26 09:13:13;;;;;;;0.90;0.40;;;;;;;27.32;51.01;96433.06;4987426;28;20149;-64
2022/06/26 09:15:43;;;;;;;0.80;0.38;;;;;;;27.48;50.23;96429.75;5001693;28;20120;-65
2022/06/26 09:18:11;;;;;;;0.75;0.30;;;;;;;28.90;46.65;96426.78;4997657;28;20120;-65
2022/06/26 09:20:49;;;;;;;0.35;0.30;;;;;;;26.99;49.33;96434.75;5002653;28;20515;-66
2022/06/26 09:23:15;;;;;;;0.65;0.32;;;;;;;27.01;48.69;96443.47;4997775;28;20487;-67
2022/06/26 09:25:44;;;;;;;2.30;0.50;;;;;;;27.11;48.01;96426.53;5002735;28;20104;-65
2022/06/26 09:28:15;;;;;;;0.93;0.70;;;;;;;27.19;47.79;96422.84;4997142;28;20049;-69
2022/06/26 09:30:58;;;;;;;2.20;0.52;;;;;;;26.69;50.38;96419.91;4997944;28;20040;-67
2022/06/26 09:33:35;;;;;;;2.80;0.50;;;;;;;27.26;47.61;96418.84;4999139;28;20561;-64
2022/06/26 09:36:03;;;;;;;2.08;0.50;;;;;;;28.57;45.76;96406.19;4999474;28;20121;-68
2022/06/26 09:38:33;;;;;;;1.73;0.70;;;;;;;29.55;44.44;96415.88;5001052;28;20188;-66
2022/06/26 09:41:08;;;;;;;0.50;0.40;;;;;;;28.05;44.95;96414.47;5002863;28;20112;-67
2022/06/26 09:43:39;;;;;;;0.68;0.40;;;;;;;27.53;47.23;96412.19;4993149;28;20141;-67
2022/06/26 09:46:06;;;;;;;3.05;0.50;;;;;;;28.25;47.41;96416.53;4997309;28;20041;-64
2022/06/26 09:48:33;;;;;;;0.43;0.40;;;;;;;29.21;45.68;96414.81;5002781;28;20038;-67
2022/06/26 09:50:59;;;;;;;2.17;0.55;;;;;;;30.05;42.96;96403.41;4991999;28;20041;-67
2022/06/26 09:53:27;;;;;;;3.28;0.55;;;;;;;30.46;41.67;96405.91;4997466;28;20517;-65
2022/06/26 09:55:54;;;;;;;0.60;0.50;;;;;;;28.14;48.66;96405.91;5002461;28;20510;-65
2022/06/26 09:58:20;;;;;;;1.63;0.50;;;;;;;28.72;46.50;96405.31;5003677;28;20506;-66
2022/06/26 10:06:25;;;;;;;1.17;0.52;;;;;;;29.27;46.17;96400.78;5014573;28;20038;-66
2022/06/26 10:06:26;;;;;;;4.47;0.60;;;;;;;28.95;45.45;96409.91;4994956;28;20052;-66
2022/06/26 10:08:56;;;;;;;1.63;0.60;;;;;;;28.60;48.39;96404.44;5002299;28;20064;-66
2022/06/26 10:11:24;;;;;;;0.47;0.40;;;;;;;27.51;47.46;96408.28;4996992;28;20317;-67
2022/06/26 10:13:53;;;;;;;1.15;0.60;;;;;;;28.52;46.68;96403.28;4993070;28;20038;-67
2022/06/26 10:16:45;;;;;;;1.42;0.50;;;;;;;29.58;45.10;96390.75;4997679;28;20133;-66
2022/06/26 10:19:26;;;;;;;1.23;0.63;;;;;;;29.35;44.72;96397.00;4994580;28;20053;-67
2022/06/26 10:21:52;;;;;;;3.20;0.60;;;;;;;30.13;43.79;96394.47;5001761;28;20037;-66
2022/06/26 10:24:18;;;;;;;2.75;0.50;;;;;;;29.54;45.68;96388.16;4996820;28;20462;-66
2022/06/26 10:26:56;;;;;;;0.50;0.40;;;;;;;28.06;47.06;96390.69;5001777;28;20172;-66
2022/06/26 10:29:32;;;;;;;1.88;0.60;;;;;;;28.64;48.63;96384.50;4996334;28;20050;-67
2022/06/26 10:31:58;;;;;;;0.70;0.40;;;;;;;29.26;45.87;96382.28;5001887;28;20041;-65
2022/06/26 10:34:25;;;;;;;1.33;0.70;;;;;;;28.97;46.13;96386.88;4987065;28;20042;-66
2022/06/26 10:37:18;;;;;;;2.10;0.60;;;;;;;28.78;47.82;96381.59;5001669;28;20038;-65
2022/06/26 10:39:46;;;;;;;2.15;0.80;;;;;;;28.46;48.06;96372.25;5000257;28;20053;-66
2022/06/26 10:45:09;;;;;;;1.60;0.50;;;;;;;28.87;49.09;96372.19;5012712;28;20053;-65
2022/06/26 10:47:56;;;;;;;2.22;0.57;;;;;;;28.42;47.58;96378.09;5014216;28;20407;-66
2022/06/26 10:50:31;;;;;;;1.52;0.60;;;;;;;28.49;47.73;96374.06;4988221;28;20072;-66
2022/06/26 10:53:17;;;;;;;1.52;0.60;;;;;;;28.90;48.70;96378.88;5001826;28;20049;-65
2022/06/26 10:55:55;;;;;;;2.13;0.70;;;;;;;28.50;46.57;96369.22;5001548;28;20136;-65
2022/06/26 10:58:27;;;;;;;3.60;0.52;;;;;;;27.98;50.01;96367.03;4989040;28;20130;-65
2022/06/26 11:00:56;;;;;;;1.25;0.65;;;;;;;27.79;50.09;96367.28;5001544;28;20087;-66
2022/06/26 11:03:22;;;;;;;1.05;0.70;;;;;;;29.00;47.18;96368.97;4991728;28;20141;-67
2022/06/26 11:05:53;;;;;;;2.90;0.60;;;;;;;28.28;49.28;96361.28;4989044;28;20058;-67
2022/06/26 11:08:30;;;;;;;1.38;0.70;;;;;;;28.92;47.99;96356.63;4994209;28;20037;-67
2022/06/26 11:11:20;;;;;;;1.70;0.52;;;;;;;28.39;48.71;96350.91;5003749;28;20042;-66
2022/06/26 11:13:50;;;;;;;1.13;0.68;;;;;;;28.40;47.64;96346.84;5018910;28;20038;-65
2022/06/26 11:16:16;;;;;;;1.58;1.08;;;;;;;29.08;49.59;96350.34;5001709;28;20104;-66
2022/06/26 11:18:42;;;;;;;2.67;0.73;;;;;;;28.78;48.39;96353.41;5000512;28;20044;-67
2022/06/26 11:21:07;;;;;;;1.77;0.77;;;;;;;28.32;47.24;96345.69;4996171;28;20030;-66
2022/06/26 11:23:35;;;;;;;0.88;0.50;;;;;;;28.71;47.55;96353.84;5000412;28;20503;-65
2022/06/26 11:26:09;;;;;;;2.88;0.50;;;;;;;28.38;48.21;96349.38;5004683;28;20088;-66
2022/06/26 11:28:40;;;;;;;2.58;0.70;;;;;;;29.36;49.17;96344.94;4999761;28;20108;-65
2022/06/26 11:31:08;;;;;;;1.48;0.50;;;;;;;28.94;48.51;96342.78;4995544;28;20049;-64
2022/06/26 11:33:36;;;;;;;2.75;0.57;;;;;;;29.88;45.58;96346.06;4997001;28;20048;-65
2022/06/26 11:36:07;;;;;;;1.13;0.70;;;;;;;29.84;45.64;96343.47;4996215;28;20040;-67
2022/06/26 11:38:33;;;;;;;1.95;0.45;;;;;;;30.51;43.00;96344.28;5002091;28;20034;-66